x

West Sea Otter (46204) Wave Buoy

1:00 - Wed 29th Mar 2017 All times are PDT. -7 hours from GMT.

  • Sig Wave height 8.2ft
  • Peak Period 15s
  • Wind
    18mph, 20mph gusts
  • Sea Temp 46°f
  • Aire Temp 44°f
  • Sea Pressure 1008.5mb
  • West Sea Otter
  • West Sea Otter

More Historic Weather Station data

Upgrade to MSW Pro to gain access to the past 30 days of data for over 8000 Wavebouys and Weather Stations around the globe.

Join Pro

Comparision Forecast

View Surf forecast
   
mié 03/29 1:00 8ft 15s 18 20 mph 1008.5mb 46f 44f
12:00 9ft 13s 4 7 mph 1008.2mb 46f 44f
11:00 9ft 15s 4 7 mph 1008.1mb 46f 44f
10:00 9.5ft 14s 4 9 mph 1008.2mb 46f 44f
9:00 8.5ft 14s 7 9 mph 1008.5mb 46f 44f
8:00 9ft 14s 7 9 mph 1008.6mb 46f 44f
7:00 10ft 15s 7 9 mph 1008.9mb 46f 44f
6:00 9ft 15s 7 9 mph 1009.1mb 46f 44f
5:00 9ft 15s 7 9 mph 1009.5mb 46f 44f
4:00 10ft 14s 9 13 mph 1010.2mb 46f 45f
3:00 10ft 16s 11 13 mph 1011.1mb 46f 45f
2:00 9.5ft 10s 11 13 mph 1012mb 46f 46f
1:00 10.5ft 15s 13 16 mph 1012.7mb 46f 45f
12:00 10.5ft 15s 13 16 mph 1013.5mb 46f 45f
mar 03/28 11:00 10ft 16s 11 16 mph 1014.2mb 46f 46f
10:00 11ft 11s 16 18 mph 1014.5mb 46f 46f
9:00 11ft 11s 13 18 mph 1014.8mb 46f 46f
8:00 11ft 11s 13 18 mph 1014.8mb 46f 44f
7:00 10.5ft 10s 4 7 mph 1015.2mb 46f 46f
6:00 10.5ft 11s 7 11 mph 1014.9mb 46f 46f
5:00 11ft 16s 7 11 mph 1014.6mb 46f 46f
4:00 11ft 14s 11 16 mph 1014.2mb 46f 46f
3:00 11ft 11s 16 20 mph 1013.6mb 46f 46f
2:00 11.5ft 15s 11 16 mph 1013mb 46f 45f
1:00 12ft 11s 20 25 mph 1012.6mb 46f 45f
12:00 12ft 15s 20 25 mph 1012.1mb 46f 45f
11:00 12.5ft 10s 20 27 mph 1011mb 46f 45f
10:00 12.5ft 15s 18 22 mph 1010.1mb 46f 45f
9:00 12ft 15s 22 27 mph 1009.4mb 46f 46f
8:00 12ft 11s 22 27 mph 1008.4mb 46f 46f
7:00 12ft 17s 22 29 mph 1007.7mb 46f 46f
6:00 12ft 17s 22 29 mph 1006.9mb 46f 46f
5:00 11.5ft 16s 22 29 mph 1006.4mb 46f 47f
4:00 12ft 7s 22 27 mph 1005.9mb 46f 47f
3:00 12ft 18s 29 38 mph 1005.8mb 46f 45f
2:00 12ft 12s 27 34 mph 1006.3mb 46f 45f
1:00 12.5ft 11s 31 38 mph 1006.7mb 46f 45f
12:00 13ft 12s 34 43 mph 1006.6mb 46f 45f
lun 03/27 11:00 12ft 9s 34 43 mph 1007.4mb 46f 44f
10:00 12ft 11s 31 40 mph 1008.4mb 46f 44f
9:00 13ft 11s 29 36 mph 1009.2mb 46f 44f
8:00 11.5ft 12s 31 38 mph 1009.8mb 46f 44f
7:00 11.5ft 12s 34 40 mph 1009.9mb 46f 44f
6:00 10ft 11s 29 36 mph 1010.7mb 46f 45f
5:00 10ft 12s 25 31 mph 1011.2mb 46f 45f
4:00 9ft 17s 22 29 mph 1011.3mb 46f 45f
3:00 8.5ft 12s 20 25 mph 1011.2mb 46f 45f
2:00 10ft 11s 22 29 mph 1010.7mb 46f 45f
1:00 9.5ft 12s 20 27 mph 1010.3mb 46f 45f
12:00 10ft 12s 25 29 mph 1009.4mb 46f 46f
11:00 9ft 12s 27 31 mph 1008.6mb 46f 45f
10:00 7.5ft 9s 22 29 mph 1008.3mb 46f 46f
9:00 7.5ft 8s 20 25 mph 1008mb 46f 46f
8:00 7.5ft 8s 18 20 mph 1008mb 46f 46f
7:00 7ft 8s 18 22 mph 1007.7mb 46f 46f
6:00 6ft 8s 13 16 mph 1007mb 46f 46f
5:00 7ft 9s 20 22 mph 1006.5mb 46f 46f
4:00 6ft 9s 20 22 mph 1005.6mb 46f 46f
3:00 6ft 8s 22 27 mph 1005.2mb 46f 46f
2:00 6ft 9s 22 27 mph 1004.6mb 46f 46f
1:00 6ft 10s 25 27 mph 1003.8mb 46f 46f
12:00 6ft 9s 22 27 mph 1003.1mb 46f 46f
dom 03/26 11:00 7ft 10s 25 31 mph 1002.8mb 46f 46f
10:00 7ft 10s 25 31 mph 1001.9mb 46f 45f
8:00 9.5ft 10s 22 27 mph 1000.7mb 46f 44f
7:00 9.5ft 10s 31 40 mph 999.4mb 46f 44f
6:00 10ft 7s 31 38 mph 998.7mb 46f 45f
5:00 10ft 7s 34 40 mph 998.5mb 46f 45f
4:00 12ft 9s 34 40 mph 998.4mb 46f 46f
3:00 12ft 10s 36 45 mph 997.9mb 46f 45f
2:00 13ft 8s 38 45 mph 997.7mb 46f 45f
1:00 13ft 7s 38 47 mph 997.5mb 46f 45f
12:00 13ft 7s 40 49 mph 997.3mb 46f 45f
11:00 11ft 8s 38 51 mph 997.1mb 46f 45f
10:00 11.5ft 7s 38 47 mph 997.5mb 46f 44f
9:00 11ft 7s 40 49 mph 998.1mb 45f 44f
8:00 10.5ft 7s 38 47 mph 999.2mb 45f 44f
7:00 10ft 6s 36 45 mph 1000.4mb 45f 44f
6:00 9ft 6s 38 49 mph 1001.3mb 46f 44f
5:00 8ft 5s 36 43 mph 1002.5mb 46f 45f
4:00 9ft 5s 34 40 mph 1004.1mb 46f 45f
3:00 8.5ft 6s 31 40 mph 1005.6mb 45f 45f
2:00 7.5ft 8s 27 36 mph 1007.2mb 46f 45f
1:00 7.5ft 5s 25 34 mph 1008.4mb 46f 44f
12:00 7.5ft 10s 25 29 mph 1009.3mb 46f 44f
sáb 03/25 11:00 7.5ft 8s 25 34 mph 1010.2mb 46f 44f
10:00 8ft 8s 22 27 mph 1010.8mb 46f 44f